Time;durP1;ratioP1;P1;durP2;ratioP2;P2;SDS_P1;SDS_P2;PMS_P1;PMS_P2;Temp;Humidity;BMP_temperature;BMP_pressure;BME280_temperature;BME280_humidity;BME280_pressure;Samples;Min_cycle;Max_cycle;Signal;HPM_P1;HPM_P2
2023/12/14 00:01:14;;;;;;;15.68;14.07;;;;;;;6.36;73.65;93906.00;5098764;28;20204;-69
2023/12/14 00:03:43;;;;;;;15.10;13.60;;;;;;;6.34;73.89;93913.78;5097072;28;20192;-69
2023/12/14 00:06:12;;;;;;;14.50;13.20;;;;;;;6.36;73.70;93895.06;5080569;28;20298;-69
2023/12/14 00:08:39;;;;;;;14.02;12.63;;;;;;;6.39;74.41;93899.00;5097690;28;20691;-69
2023/12/14 00:11:07;;;;;;;14.93;13.52;;;;;;;6.37;74.01;93904.06;5096988;28;20235;-69
2023/12/14 00:13:36;;;;;;;14.82;13.25;;;;;;;6.35;74.06;93911.81;5097976;28;20204;-69
2023/12/14 00:16:03;;;;;;;15.15;13.27;;;;;;;6.37;73.77;93898.59;5095939;28;20369;-69
2023/12/14 00:18:31;;;;;;;15.82;14.25;;;;;;;6.34;73.87;93912.97;5096966;28;20600;-69
2023/12/14 00:20:58;;;;;;;14.75;13.25;;;;;;;6.30;73.93;93912.88;5097940;28;20214;-69
2023/12/14 00:23:27;;;;;;;15.38;13.88;;;;;;;6.32;74.00;93913.34;5080054;28;20196;-69
2023/12/14 00:25:54;;;;;;;15.48;14.00;;;;;;;6.29;74.32;93930.47;5097781;28;20193;-69
2023/12/14 00:28:22;;;;;;;14.98;13.52;;;;;;;6.22;74.25;93911.13;5079672;28;20237;-69
2023/12/14 00:30:49;;;;;;;15.38;13.88;;;;;;;6.16;74.13;93915.28;5079647;28;20204;-69
2023/12/14 00:33:16;;;;;;;15.55;14.05;;;;;;;6.13;74.46;93914.03;5097223;28;20235;-69
2023/12/14 00:35:43;;;;;;;14.93;13.35;;;;;;;6.10;74.57;93920.22;5079411;28;20303;-69
2023/12/14 00:38:11;;;;;;;14.30;13.00;;;;;;;6.11;74.95;93905.38;5096316;28;20693;-68
2023/12/14 00:40:39;;;;;;;14.68;13.27;;;;;;;6.01;74.62;93905.91;5097422;28;20227;-68
2023/12/14 00:43:07;;;;;;;15.18;13.70;;;;;;;5.98;74.88;93918.34;5096065;28;20561;-68
2023/12/14 00:45:34;;;;;;;14.32;13.02;;;;;;;5.91;75.08;93917.34;5097405;28;20220;-68
2023/12/14 00:48:01;;;;;;;13.95;12.57;;;;;;;5.87;75.24;93908.25;5097808;28;20254;-68
2023/12/14 00:50:28;;;;;;;14.70;13.27;;;;;;;5.89;75.33;93914.16;5097298;28;20216;-68
2023/12/14 00:52:55;;;;;;;14.65;13.25;;;;;;;5.91;75.61;93914.59;5096820;28;20201;-68
2023/12/14 00:55:22;;;;;;;14.07;12.85;;;;;;;5.92;75.72;93910.72;5080089;28;20204;-68
2023/12/14 00:57:50;;;;;;;14.52;13.23;;;;;;;5.93;75.54;93915.09;5095933;28;20204;-68
2023/12/14 01:00:18;;;;;;;14.20;12.80;;;;;;;5.96;75.79;93909.72;5096739;28;20317;-68
2023/12/14 01:02:45;;;;;;;13.35;12.10;;;;;;;5.99;75.31;93910.91;5096373;28;20193;-68
2023/12/14 01:05:12;;;;;;;14.77;13.27;;;;;;;5.88;75.37;93915.28;5096972;28;20215;-69
2023/12/14 01:07:39;;;;;;;14.77;13.38;;;;;;;5.76;75.29;93911.47;5096976;28;20218;-69
2023/12/14 01:10:08;;;;;;;14.15;12.85;;;;;;;5.72;75.25;93920.75;5095733;28;20227;-69
2023/12/14 01:12:36;;;;;;;13.40;12.20;;;;;;;5.80;75.70;93906.91;5097129;28;20235;-69
2023/12/14 01:15:06;;;;;;;13.23;11.95;;;;;;;5.90;75.49;93911.06;5096584;28;20236;-69
2023/12/14 01:17:36;;;;;;;12.32;11.23;;;;;;;5.97;75.60;93910.50;5078943;28;20208;-69
2023/12/14 01:20:05;;;;;;;13.30;12.10;;;;;;;6.00;75.03;93901.59;5096448;28;20201;-69
2023/12/14 01:22:33;;;;;;;12.55;11.35;;;;;;;6.01;75.10;93906.69;5079121;28;20231;-69
2023/12/14 01:25:01;;;;;;;12.38;11.20;;;;;;;6.03;74.94;93893.47;5096631;28;20254;-69
2023/12/14 01:27:27;;;;;;;12.93;11.73;;;;;;;6.06;75.35;93907.56;5096955;28;20249;-69
2023/12/14 01:29:55;;;;;;;11.88;10.80;;;;;;;6.08;74.93;93908.03;5096860;28;20231;-69
2023/12/14 01:32:23;;;;;;;12.52;11.32;;;;;;;6.06;74.89;93910.31;5078997;28;20251;-69
2023/12/14 01:34:50;;;;;;;12.25;11.10;;;;;;;6.06;75.14;93905.63;5078314;28;20196;-69
2023/12/14 01:37:17;;;;;;;12.48;11.27;;;;;;;6.03;75.10;93922.78;5078791;28;20204;-69
2023/12/14 01:39:44;;;;;;;12.02;10.93;;;;;;;6.00;75.45;93896.13;5096745;28;20576;-69
2023/12/14 01:42:11;;;;;;;12.88;11.60;;;;;;;6.00;75.52;93898.84;5095434;28;20200;-69
2023/12/14 01:44:38;;;;;;;12.77;11.57;;;;;;;5.93;75.24;93893.19;5095961;28;20593;-68
2023/12/14 01:47:05;;;;;;;12.85;11.75;;;;;;;5.89;75.37;93916.91;5096423;28;20238;-68
2023/12/14 01:49:33;;;;;;;13.02;11.93;;;;;;;5.85;75.37;93908.59;5077455;28;20602;-68
2023/12/14 01:52:01;;;;;;;13.35;12.05;;;;;;;5.83;75.11;93890.94;5095716;28;20259;-68
2023/12/14 01:54:28;;;;;;;12.85;11.55;;;;;;;5.68;75.06;93897.97;5095691;28;20277;-68
2023/12/14 01:56:54;;;;;;;13.95;12.55;;;;;;;5.70;75.92;93904.69;5096003;28;20336;-68
2023/12/14 01:59:21;;;;;;;12.82;11.63;;;;;;;5.71;76.16;93894.53;5096486;28;20247;-69
2023/12/14 02:01:55;;;;;;;14.52;13.13;;;;;;;5.72;75.86;93896.13;5095986;28;20181;-69
2023/12/14 02:04:23;;;;;;;15.00;13.63;;;;;;;5.73;76.11;93887.56;5094680;28;20192;-69
2023/12/14 02:06:52;;;;;;;14.00;12.80;;;;;;;5.77;75.75;93888.47;5094985;28;20204;-69
2023/12/14 02:09:19;;;;;;;13.93;12.63;;;;;;;5.67;76.37;93880.78;5078585;28;20227;-69
2023/12/14 02:11:46;;;;;;;13.63;12.20;;;;;;;5.69;76.01;93888.63;5095858;28;20212;-69
2023/12/14 02:14:13;;;;;;;13.60;12.30;;;;;;;5.70;76.34;93888.28;5094118;28;20691;-68
2023/12/14 02:16:40;;;;;;;14.27;12.90;;;;;;;5.72;75.89;93883.25;5095423;28;20207;-68
2023/12/14 02:19:07;;;;;;;14.18;12.77;;;;;;;5.71;76.41;93867.19;5095326;28;20246;-68
2023/12/14 02:21:35;;;;;;;13.20;12.00;;;;;;;5.64;76.11;93861.53;5095394;28;20185;-68
2023/12/14 02:24:04;;;;;;;13.60;12.40;;;;;;;5.59;76.43;93873.50;5095094;28;20212;-68
2023/12/14 02:26:31;;;;;;;13.20;12.02;;;;;;;5.60;76.77;93863.38;5095560;28;20265;-68
2023/12/14 02:28:58;;;;;;;13.60;12.40;;;;;;;5.65;76.79;93863.91;5095561;28;20249;-69
2023/12/14 02:31:25;;;;;;;13.43;12.15;;;;;;;5.69;76.75;93875.72;5095795;28;20253;-69
2023/12/14 02:33:52;;;;;;;12.85;11.73;;;;;;;5.68;76.58;93865.16;5094978;28;20243;-69
2023/12/14 02:36:22;;;;;;;13.15;11.82;;;;;;;5.63;77.03;93876.34;5095487;28;20180;-69
2023/12/14 02:38:49;;;;;;;12.35;11.27;;;;;;;5.61;76.85;93857.56;5095621;28;20212;-69
2023/12/14 02:41:20;;;;;;;13.95;12.57;;;;;;;5.62;77.11;93885.69;5095107;28;20192;-69
2023/12/14 02:43:47;;;;;;;11.50;10.40;;;;;;;5.65;77.14;93863.13;5095108;28;20235;-69
2023/12/14 02:46:15;;;;;;;13.05;11.85;;;;;;;5.70;77.03;93887.47;5077315;28;20281;-69
2023/12/14 02:48:43;;;;;;;13.43;12.23;;;;;;;5.74;76.86;93866.50;5095529;28;20267;-69
2023/12/14 02:51:14;;;;;;;13.30;12.10;;;;;;;5.78;76.36;93887.31;5077904;28;20230;-69
2023/12/14 02:53:42;;;;;;;12.55;11.40;;;;;;;5.80;76.52;93881.47;5095448;28;20208;-69
2023/12/14 02:56:14;;;;;;;13.40;12.13;;;;;;;5.73;76.19;93890.28;5095142;28;20293;-69
2023/12/14 02:58:49;;;;;;;13.57;12.27;;;;;;;5.73;76.44;93873.88;5093929;28;20204;-69
2023/12/14 03:01:16;;;;;;;12.90;11.73;;;;;;;5.67;76.54;93902.66;5095041;28;20188;-69
2023/12/14 03:03:43;;;;;;;14.45;13.00;;;;;;;5.72;76.57;93879.72;5094877;28;20177;-69
2023/12/14 03:06:11;;;;;;;14.73;13.38;;;;;;;5.75;76.83;93889.97;5098330;28;20246;-69
2023/12/14 03:08:37;;;;;;;14.98;13.40;;;;;;;5.80;76.62;93882.28;5099308;28;20228;-69
2023/12/14 03:11:05;;;;;;;14.07;12.77;;;;;;;5.80;76.28;93865.84;5098944;28;20192;-69
2023/12/14 03:13:32;;;;;;;14.48;13.10;;;;;;;5.71;76.38;93875.41;5081546;28;20656;-69
2023/12/14 03:16:03;;;;;;;16.70;15.07;;;;;;;5.75;76.44;93862.59;5099328;28;20276;-69
2023/12/14 03:18:31;;;;;;;14.77;13.38;;;;;;;5.70;76.08;93858.19;5099139;28;20181;-69
2023/12/14 03:20:57;;;;;;;17.15;13.95;;;;;;;5.69;76.34;93866.72;5099168;28;20219;-69
2023/12/14 03:23:24;;;;;;;15.15;13.68;;;;;;;5.70;76.91;93849.16;5098791;28;20589;-69
2023/12/14 03:25:52;;;;;;;15.43;13.18;;;;;;;5.63;76.56;93858.00;5098067;28;20648;-69
2023/12/14 03:28:19;;;;;;;18.15;16.48;;;;;;;5.62;76.79;93861.06;5098988;28;20185;-69
2023/12/14 03:30:46;;;;;;;20.85;18.88;;;;;;;5.61;77.02;93837.59;5098547;28;20701;-69
2023/12/14 03:33:14;;;;;;;25.90;23.33;;;;;;;5.69;77.01;93856.59;5099088;28;20196;-69
2023/12/14 03:35:42;;;;;;;18.02;16.13;;;;;;;5.76;77.09;93839.56;5098872;28;20227;-69
2023/12/14 03:38:09;;;;;;;21.08;19.13;;;;;;;5.86;76.87;93832.78;5098596;28;20200;-69
2023/12/14 03:40:36;;;;;;;25.98;23.17;;;;;;;5.86;76.71;93824.56;5098810;28;20276;-69
2023/12/14 03:43:04;;;;;;;33.88;27.30;;;;;;;5.82;76.66;93810.78;5080946;28;20237;-69
2023/12/14 03:45:31;;;;;;;43.53;31.27;;;;;;;5.77;76.34;93828.28;5097625;28;20200;-68
2023/12/14 03:47:58;;;;;;;30.98;24.98;;;;;;;5.71;76.67;93816.00;5098561;28;20262;-68
2023/12/14 03:50:28;;;;;;;21.25;17.17;;;;;;;5.67;76.58;93817.84;5080899;28;20204;-68
2023/12/14 03:52:54;;;;;;;25.58;21.13;;;;;;;5.62;76.96;93818.09;5080608;28;20216;-68
2023/12/14 03:55:22;;;;;;;21.65;18.90;;;;;;;5.63;77.12;93808.78;5099183;28;20200;-68
2023/12/14 03:57:49;;;;;;;19.95;17.70;;;;;;;5.63;76.51;93811.50;5097429;28;20269;-69
2023/12/14 04:00:19;;;;;;;23.50;19.58;;;;;;;5.68;76.70;93813.97;5098689;28;20269;-69
2023/12/14 04:02:46;;;;;;;18.30;15.80;;;;;;;5.72;77.30;93797.63;5097280;28;20204;-69
2023/12/14 04:05:13;;;;;;;19.13;17.17;;;;;;;5.76;76.43;93828.63;5098187;28;20188;-69
2023/12/14 04:07:42;;;;;;;13.93;12.52;;;;;;;5.78;76.59;93805.25;5098933;28;20223;-69
2023/12/14 04:10:10;;;;;;;14.07;12.63;;;;;;;5.88;76.71;93834.03;5097798;28;20227;-69
2023/12/14 04:12:37;;;;;;;11.80;10.60;;;;;;;5.89;76.68;93832.88;5077901;28;20634;-69
2023/12/14 04:15:05;;;;;;;11.23;10.02;;;;;;;5.89;76.03;93819.19;5094993;28;20251;-69
2023/12/14 04:17:32;;;;;;;12.55;11.25;;;;;;;5.91;76.40;93840.72;5078790;28;20184;-69
2023/12/14 04:20:00;;;;;;;10.60;9.60;;;;;;;5.92;76.17;93851.34;5097682;28;20192;-69
2023/12/14 04:22:27;;;;;;;10.50;9.60;;;;;;;5.99;76.17;93837.03;5097557;28;20227;-69
2023/12/14 04:24:57;;;;;;;8.52;7.72;;;;;;;6.03;76.15;93852.41;5080572;28;20227;-69
2023/12/14 04:27:28;;;;;;;11.93;9.85;;;;;;;6.09;75.86;93806.38;5097562;28;20185;-69
2023/12/14 04:29:55;;;;;;;8.57;7.80;;;;;;;6.11;75.56;93847.09;5079958;28;20226;-69
2023/12/14 04:32:21;;;;;;;7.15;6.47;;;;;;;6.17;75.79;93837.47;5097362;28;20250;-69
2023/12/14 04:34:48;;;;;;;6.50;5.90;;;;;;;6.25;75.37;93845.50;5080681;28;20188;-70
2023/12/14 04:37:15;;;;;;;7.10;6.50;;;;;;;6.30;75.41;93828.00;5079586;28;20222;-69
2023/12/14 04:39:42;;;;;;;7.40;6.78;;;;;;;6.35;75.54;93837.88;5080788;28;20227;-69
2023/12/14 04:42:10;;;;;;;6.80;6.20;;;;;;;6.39;74.80;93834.09;5079991;28;20578;-69
2023/12/14 04:44:37;;;;;;;7.20;6.60;;;;;;;6.45;74.73;93827.16;5080556;28;20231;-69
2023/12/14 04:47:06;;;;;;;7.45;6.22;;;;;;;6.46;74.33;93833.44;5097146;28;20173;-69
2023/12/14 04:49:33;;;;;;;6.72;6.22;;;;;;;6.48;74.54;93853.06;5080581;28;20208;-68
2023/12/14 04:52:00;;;;;;;6.72;6.13;;;;;;;6.51;74.16;93836.72;5079525;28;20313;-68
2023/12/14 04:54:29;;;;;;;7.20;6.50;;;;;;;6.52;74.65;93848.44;5096902;28;20235;-69
2023/12/14 04:56:56;;;;;;;7.07;6.47;;;;;;;6.53;74.23;93821.84;5097221;28;20247;-69
2023/12/14 04:59:25;;;;;;;7.70;6.90;;;;;;;6.54;73.98;93861.81;5079362;28;20188;-69
2023/12/14 05:01:52;;;;;;;8.52;7.72;;;;;;;6.53;74.05;93833.59;5096857;28;20228;-69
2023/12/14 05:04:18;;;;;;;10.23;6.68;;;;;;;6.57;74.16;93839.94;5078988;28;20196;-69
2023/12/14 05:06:46;;;;;;;7.30;6.60;;;;;;;6.61;73.72;93835.38;5079442;28;20277;-69
2023/12/14 05:09:13;;;;;;;7.45;6.80;;;;;;;6.61;73.87;93838.09;5080055;28;20250;-69
2023/12/14 05:11:40;;;;;;;7.40;6.78;;;;;;;6.56;73.79;93832.88;5080220;28;20231;-71
2023/12/14 05:14:07;;;;;;;7.70;7.00;;;;;;;6.48;73.78;93848.38;5078779;28;20246;-70
2023/12/14 05:16:36;;;;;;;8.25;7.45;;;;;;;6.40;74.45;93834.88;5079545;28;20228;-72
2023/12/14 05:19:03;;;;;;;8.52;7.72;;;;;;;6.34;74.75;93825.34;5078997;28;20333;-74
2023/12/14 05:21:30;;;;;;;9.43;8.30;;;;;;;6.26;75.01;93841.59;5079379;28;20673;-73
2023/12/14 05:23:57;;;;;;;9.50;8.60;;;;;;;6.23;74.99;93849.72;5079399;28;20200;-72
2023/12/14 05:26:24;;;;;;;9.20;8.40;;;;;;;6.26;75.30;93849.03;5078868;28;20208;-72
2023/12/14 05:28:51;;;;;;;9.43;8.48;;;;;;;6.24;75.34;93840.38;5078574;28;20230;-73
2023/12/14 05:31:19;;;;;;;10.32;9.43;;;;;;;6.22;75.54;93851.69;5079577;28;20188;-73
2023/12/14 05:33:47;;;;;;;10.05;9.05;;;;;;;6.23;75.62;93857.94;5078346;28;20220;-72
2023/12/14 05:36:14;;;;;;;9.93;9.02;;;;;;;6.27;75.28;93847.88;5078540;28;20192;-72
2023/12/14 05:38:42;;;;;;;9.93;8.98;;;;;;;6.27;75.43;93870.56;5078508;28;20215;-74
2023/12/14 05:41:10;;;;;;;10.10;9.10;;;;;;;6.26;75.43;93870.94;5079091;28;20204;-73
2023/12/14 05:43:37;;;;;;;11.15;10.05;;;;;;;6.24;75.41;93863.06;5096279;28;20623;-72
2023/12/14 05:46:05;;;;;;;10.32;9.43;;;;;;;6.18;75.89;93863.72;5096139;28;20185;-72
2023/12/14 05:48:32;;;;;;;10.75;9.70;;;;;;;6.11;75.81;93856.09;5076892;28;20262;-72
2023/12/14 05:51:02;;;;;;;10.52;9.43;;;;;;;6.11;75.88;93863.53;5078035;28;20208;-72
2023/12/14 05:53:29;;;;;;;11.30;10.30;;;;;;;6.11;75.98;93879.97;5078655;28;20248;-72
2023/12/14 05:55:57;;;;;;;10.02;9.13;;;;;;;6.08;76.27;93877.91;5094930;28;20204;-72
2023/12/14 05:58:24;;;;;;;11.10;10.00;;;;;;;6.06;76.23;93880.19;5096362;28;20629;-72
2023/12/14 06:00:51;;;;;;;12.50;11.40;;;;;;;6.05;76.21;93875.88;5095057;28;20580;-72
2023/12/14 06:03:18;;;;;;;13.38;11.98;;;;;;;5.99;76.52;93880.81;5094952;28;20188;-72
2023/12/14 06:05:45;;;;;;;12.85;11.73;;;;;;;5.95;76.51;93886.19;5077808;28;20181;-72
2023/12/14 06:08:13;;;;;;;10.60;9.60;;;;;;;6.00;76.68;93863.25;5095668;28;20266;-72
2023/12/14 06:10:40;;;;;;;11.77;10.60;;;;;;;6.07;76.77;93892.75;5095899;28;20196;-72
2023/12/14 06:13:09;;;;;;;9.07;8.20;;;;;;;6.15;76.53;93875.38;5095417;28;20216;-73
2023/12/14 06:15:36;;;;;;;9.30;8.40;;;;;;;6.23;76.27;93869.69;5062767;28;20236;-73
2023/12/14 06:18:04;;;;;;;9.13;8.32;;;;;;;6.31;75.89;93894.50;5058267;28;20247;-71
2023/12/14 06:20:32;;;;;;;8.65;7.95;;;;;;;6.39;75.96;93868.88;5075447;28;20272;-72
2023/12/14 06:22:59;;;;;;;8.65;7.93;;;;;;;6.46;75.35;93900.00;5058320;28;20197;-72
2023/12/14 06:25:28;;;;;;;8.82;7.93;;;;;;;6.53;74.92;93884.84;5075151;28;20243;-71
2023/12/14 06:27:55;;;;;;;9.63;8.77;;;;;;;6.59;74.54;93892.44;5075517;28;20247;-72
2023/12/14 06:30:23;;;;;;;8.52;7.75;;;;;;;6.66;74.68;93894.56;5058557;28;20206;-71
2023/12/14 06:32:51;;;;;;;8.27;7.50;;;;;;;6.73;74.05;93902.94;5057951;28;20197;-71
2023/12/14 06:35:18;;;;;;;8.63;7.82;;;;;;;6.80;73.82;93891.34;5057413;28;20193;-71
2023/12/14 06:37:45;;;;;;;8.20;7.38;;;;;;;6.85;73.91;93908.31;5057350;28;20678;-71
2023/12/14 06:40:13;;;;;;;8.05;7.25;;;;;;;6.89;73.36;93906.44;5075081;28;20182;-71
2023/12/14 06:42:44;;;;;;;9.13;8.30;;;;;;;6.93;73.66;93904.56;5075152;28;20235;-71
2023/12/14 06:45:11;;;;;;;8.98;8.00;;;;;;;6.93;73.40;93901.81;5057600;28;20254;-71
2023/12/14 06:47:41;;;;;;;9.27;8.30;;;;;;;6.95;73.76;93915.97;5075179;28;20251;-71
2023/12/14 06:50:08;;;;;;;9.18;8.27;;;;;;;6.96;73.58;93930.47;5057853;28;20220;-71
2023/12/14 06:52:35;;;;;;;8.15;7.20;;;;;;;6.98;73.07;93918.00;5058105;28;20243;-71
2023/12/14 06:55:02;;;;;;;8.55;7.80;;;;;;;7.05;73.16;93925.59;5058049;28;20258;-72
2023/12/14 06:57:29;;;;;;;8.48;7.57;;;;;;;7.10;72.86;93914.34;5075127;28;20223;-72
2023/12/14 06:59:58;;;;;;;8.32;7.53;;;;;;;7.15;72.22;93902.28;5075151;28;20250;-72
2023/12/14 07:02:25;;;;;;;9.45;8.30;;;;;;;7.12;72.65;93917.53;5074355;28;20200;-71
2023/12/14 07:04:52;;;;;;;9.25;8.35;;;;;;;7.12;72.83;93920.28;5074765;28;20288;-71
2023/12/14 07:07:19;;;;;;;10.13;8.90;;;;;;;7.18;72.94;93932.53;5057682;28;20209;-71
2023/12/14 07:09:47;;;;;;;10.20;9.20;;;;;;;7.24;72.37;93924.81;5057763;28;20292;-72
2023/12/14 07:12:14;;;;;;;9.88;8.82;;;;;;;7.28;72.39;93928.44;5040953;28;20200;-72
2023/12/14 07:14:42;;;;;;;9.52;8.60;;;;;;;7.34;72.42;93926.22;5056807;28;20237;-71
2023/12/14 07:17:11;;;;;;;9.40;8.50;;;;;;;7.35;72.20;93931.34;5074349;28;20236;-72
2023/12/14 07:19:38;;;;;;;8.95;8.05;;;;;;;7.41;71.85;93946.34;5074628;28;20258;-72
2023/12/14 07:22:05;;;;;;;9.73;8.82;;;;;;;7.47;71.67;93938.63;5075021;28;20213;-72
2023/12/14 07:24:32;;;;;;;9.73;8.88;;;;;;;7.54;71.37;93949.75;5074556;28;20197;-73
2023/12/14 07:26:59;;;;;;;9.43;8.52;;;;;;;7.60;71.55;93950.25;5074094;28;20207;-71
2023/12/14 07:29:27;;;;;;;10.82;9.63;;;;;;;7.73;72.04;93957.16;5074544;28;20557;-70
2023/12/14 07:31:54;;;;;;;9.25;8.45;;;;;;;7.79;72.08;93944.75;5073651;28;20250;-70
2023/12/14 07:34:24;;;;;;;9.88;8.88;;;;;;;7.89;71.61;93935.16;5074629;28;20229;-71
2023/12/14 07:36:51;;;;;;;10.85;9.75;;;;;;;7.93;71.22;93936.78;5074094;28;20547;-71
2023/12/14 07:39:18;;;;;;;12.23;10.70;;;;;;;7.96;71.06;93949.00;5073442;28;20249;-71
2023/12/14 07:41:46;;;;;;;11.07;9.98;;;;;;;7.97;71.51;93961.56;5075002;28;20199;-71
2023/12/14 07:44:13;;;;;;;10.23;9.30;;;;;;;7.99;71.41;93952.97;5075009;28;20213;-71
2023/12/14 07:46:42;;;;;;;13.25;10.23;;;;;;;8.03;71.71;93954.63;5074667;28;20207;-72
2023/12/14 07:49:10;;;;;;;12.05;9.75;;;;;;;8.04;71.83;93952.69;5057345;28;20209;-72
2023/12/14 07:51:38;;;;;;;11.27;10.18;;;;;;;8.07;71.87;93966.47;5059725;28;20204;-71
2023/12/14 07:54:06;;;;;;;11.73;10.55;;;;;;;8.10;72.10;93956.72;5060604;28;20232;-71
2023/12/14 07:56:34;;;;;;;14.60;11.38;;;;;;;8.14;72.01;93943.84;5060682;28;20266;-71
2023/12/14 07:59:06;;;;;;;11.93;10.05;;;;;;;8.16;72.13;93961.53;5060133;28;20204;-70
2023/12/14 08:01:33;;;;;;;11.27;10.18;;;;;;;8.24;72.15;93969.91;5078585;28;20185;-71
2023/12/14 08:04:01;;;;;;;11.88;10.77;;;;;;;8.33;71.47;93970.47;5060033;28;20205;-71
2023/12/14 08:06:28;;;;;;;12.52;11.23;;;;;;;8.40;71.14;93976.94;5077993;28;20629;-71
2023/12/14 08:08:57;;;;;;;12.30;11.10;;;;;;;8.49;71.42;93957.44;5061317;28;20266;-71
2023/12/14 08:11:24;;;;;;;14.45;12.95;;;;;;;8.56;70.76;93954.81;5078664;28;20208;-71
2023/12/14 08:13:51;;;;;;;14.63;13.13;;;;;;;8.60;70.75;93968.63;5060145;28;20244;-71
2023/12/14 08:16:19;;;;;;;13.02;11.73;;;;;;;8.62;71.15;93963.56;5058367;28;20298;-71
2023/12/14 08:18:49;;;;;;;11.07;9.98;;;;;;;8.62;69.78;93964.34;5077884;28;20189;-71
2023/12/14 08:21:17;;;;;;;12.93;11.35;;;;;;;8.66;70.31;93961.66;5077602;28;20276;-71
2023/12/14 08:23:44;;;;;;;10.52;9.43;;;;;;;8.70;70.89;93978.22;5060347;28;20262;-71
2023/12/14 08:26:12;;;;;;;11.15;9.77;;;;;;;8.73;70.44;93958.22;5061021;28;20220;-71
2023/12/14 08:28:40;;;;;;;10.20;9.20;;;;;;;8.76;70.74;93961.03;5077536;28;20181;-71
2023/12/14 08:31:09;;;;;;;10.98;9.95;;;;;;;8.80;70.35;93959.13;5060496;28;20215;-71
2023/12/14 08:33:36;;;;;;;10.75;9.65;;;;;;;8.86;70.18;93965.09;5059572;28;20204;-71
2023/12/14 08:36:05;;;;;;;14.02;10.00;;;;;;;8.91;69.99;93970.31;5077293;28;20189;-71
2023/12/14 08:38:31;;;;;;;11.75;9.85;;;;;;;8.97;70.35;93963.34;5075915;28;20225;-71
2023/12/14 08:41:00;;;;;;;10.80;9.50;;;;;;;9.03;69.86;93961.84;5059181;28;20240;-71
2023/12/14 08:43:29;;;;;;;10.55;8.63;;;;;;;9.10;70.02;93972.16;5060495;28;20262;-71
2023/12/14 08:45:56;;;;;;;10.55;9.55;;;;;;;9.15;70.53;93975.41;5077777;28;20193;-71
2023/12/14 08:48:23;;;;;;;14.23;10.45;;;;;;;9.18;69.17;93979.34;5077158;28;20258;-71
2023/12/14 08:50:54;;;;;;;11.93;10.73;;;;;;;9.20;68.59;93974.28;5077165;28;20258;-71
2023/12/14 08:53:22;;;;;;;11.60;10.40;;;;;;;9.24;68.62;93968.84;5076149;28;20619;-71
2023/12/14 08:55:49;;;;;;;12.07;9.65;;;;;;;9.30;68.91;93976.41;5077053;28;20241;-71
2023/12/14 08:58:17;;;;;;;10.00;8.63;;;;;;;9.38;68.30;93978.09;5077453;28;20185;-71
2023/12/14 09:00:46;;;;;;;7.32;6.47;;;;;;;9.47;68.80;93982.53;5077665;28;20246;-71
2023/12/14 09:03:13;;;;;;;8.15;7.05;;;;;;;9.57;68.59;93979.13;5058936;28;20517;-71
2023/12/14 09:05:42;;;;;;;10.10;7.38;;;;;;;9.67;68.16;93978.47;5062116;28;20193;-71
2023/12/14 09:08:10;;;;;;;7.60;6.78;;;;;;;9.77;67.91;93990.81;5061111;28;20303;-71
2023/12/14 09:10:37;;;;;;;13.20;7.82;;;;;;;9.84;68.55;93982.59;5060576;28;20209;-71
2023/12/14 09:13:04;;;;;;;7.32;6.22;;;;;;;9.92;67.67;93964.22;5060266;28;20189;-72
2023/12/14 09:15:31;;;;;;;9.80;6.45;;;;;;;9.98;67.24;93965.47;5089763;28;20236;-72
2023/12/14 09:18:00;;;;;;;8.00;6.63;;;;;;;10.01;66.54;93960.00;5079750;28;20196;-71
2023/12/14 09:20:28;;;;;;;9.00;7.32;;;;;;;10.03;65.90;93965.16;5079939;28;20204;-71
2023/12/14 09:22:55;;;;;;;7.82;6.97;;;;;;;10.02;65.49;93978.13;5079048;28;20301;-71
2023/12/14 09:25:25;;;;;;;7.88;7.07;;;;;;;10.01;65.75;93968.25;5079254;28;20196;-71
2023/12/14 09:27:52;;;;;;;8.05;6.70;;;;;;;10.01;64.70;93968.25;5096732;28;20192;-71
2023/12/14 09:30:19;;;;;;;8.00;7.25;;;;;;;10.02;65.26;93969.88;5079023;28;20192;-71
2023/12/14 09:32:47;;;;;;;7.65;6.68;;;;;;;10.01;64.58;93976.53;5096395;28;20200;-71
2023/12/14 09:35:19;;;;;;;7.45;6.07;;;;;;;10.04;65.29;93981.28;5078631;28;20216;-72
2023/12/14 09:37:46;;;;;;;7.25;6.57;;;;;;;10.05;64.99;93993.88;5078982;28;20219;-71
2023/12/14 09:40:14;;;;;;;10.70;7.45;;;;;;;10.10;65.63;93990.03;5078768;28;20195;-71
2023/12/14 09:42:41;;;;;;;8.70;6.53;;;;;;;10.12;64.63;93991.22;5095811;28;20228;-71
2023/12/14 09:45:11;;;;;;;7.75;6.15;;;;;;;10.17;65.41;93990.09;5096124;28;20245;-71
2023/12/14 09:47:39;;;;;;;9.93;7.65;;;;;;;10.23;65.40;93993.31;5096590;28;20278;-71
2023/12/14 09:50:07;;;;;;;11.65;9.90;;;;;;;10.29;65.50;93992.63;5096052;28;20220;-71
2023/12/14 09:52:37;;;;;;;12.75;8.27;;;;;;;10.33;65.74;93998.19;5079102;28;20204;-71
2023/12/14 09:55:04;;;;;;;13.63;10.70;;;;;;;10.35;65.64;93998.59;5078425;28;20314;-71
2023/12/14 09:57:31;;;;;;;22.90;14.30;;;;;;;10.35;65.36;93995.84;5095230;28;20266;-71
2023/12/14 09:59:58;;;;;;;23.00;14.30;;;;;;;10.35;65.04;94004.13;5078568;28;20269;-71
2023/12/14 10:02:26;;;;;;;15.75;10.63;;;;;;;10.34;65.66;93994.25;5095748;28;20188;-71
2023/12/14 10:04:54;;;;;;;8.98;7.05;;;;;;;10.30;63.21;93998.94;5095339;28;20253;-71
2023/12/14 10:07:22;;;;;;;7.18;6.43;;;;;;;10.29;63.75;93994.59;5096007;28;20231;-71
2023/12/14 10:09:52;;;;;;;7.85;7.05;;;;;;;10.26;63.53;94001.66;5078087;28;20201;-71
2023/12/14 10:12:21;;;;;;;8.27;6.57;;;;;;;10.25;63.78;93997.31;5095817;28;20211;-71
2023/12/14 10:14:49;;;;;;;8.55;7.28;;;;;;;10.26;64.35;93995.34;5068376;28;20562;-71
2023/12/14 10:17:19;;;;;;;7.75;7.00;;;;;;;10.27;64.61;94003.22;5058107;28;20220;-71
2023/12/14 10:19:47;;;;;;;11.30;8.98;;;;;;;10.28;64.91;93998.53;5075505;28;20189;-70
2023/12/14 10:22:17;;;;;;;18.98;13.40;;;;;;;10.28;65.77;93987.50;5075467;28;20666;-71
2023/12/14 10:24:45;;;;;;;17.55;14.70;;;;;;;10.30;66.48;93988.69;5058120;28;20197;-71
2023/12/14 10:27:15;;;;;;;18.80;15.88;;;;;;;10.34;66.67;93986.75;5075847;28;20211;-70
2023/12/14 10:29:44;;;;;;;17.60;15.43;;;;;;;10.38;67.74;93988.78;5075693;28;20204;-71
2023/12/14 10:32:11;;;;;;;18.83;15.23;;;;;;;10.44;67.53;93995.53;5076192;28;20242;-71
2023/12/14 10:34:39;;;;;;;21.85;17.58;;;;;;;10.45;68.07;93997.91;5075037;28;20252;-71
2023/12/14 10:37:07;;;;;;;18.80;15.07;;;;;;;10.39;67.76;93995.88;5058047;28;20201;-72
2023/12/14 10:39:35;;;;;;;15.98;14.32;;;;;;;10.34;68.01;94003.31;5058409;28;20288;-71
2023/12/14 10:42:04;;;;;;;13.30;11.63;;;;;;;10.29;68.42;94006.41;5075146;28;20517;-71
2023/12/14 10:44:36;;;;;;;10.60;9.50;;;;;;;10.28;69.29;94012.31;5075500;28;20177;-71
2023/12/14 10:47:05;;;;;;;8.68;7.80;;;;;;;10.22;70.82;94005.50;5058739;28;20189;-72
2023/12/14 10:49:34;;;;;;;7.90;7.10;;;;;;;10.20;71.37;94016.88;5075646;28;20192;-72
2023/12/14 10:52:02;;;;;;;8.88;7.50;;;;;;;10.20;72.08;94030.66;5058390;28;20204;-72
2023/12/14 10:54:32;;;;;;;6.28;5.78;;;;;;;10.18;73.58;94029.47;5074877;28;20196;-72
2023/12/14 10:56:59;;;;;;;7.15;6.20;;;;;;;10.17;73.29;94036.94;5058579;28;20209;-71
2023/12/14 10:59:27;;;;;;;5.55;4.47;;;;;;;10.13;73.01;94039.66;5057550;28;20193;-71
2023/12/14 11:01:57;;;;;;;4.20;3.80;;;;;;;10.08;72.82;94056.50;5058463;28;20224;-72
2023/12/14 11:04:24;;;;;;;4.30;3.90;;;;;;;10.05;72.78;94062.75;5075108;28;20189;-72
2023/12/14 11:06:54;;;;;;;4.07;3.38;;;;;;;10.01;72.75;94075.69;5075469;28;20213;-71
2023/12/14 11:09:27;;;;;;;3.83;3.10;;;;;;;9.92;71.96;94068.91;5075526;28;20201;-72
2023/12/14 11:11:59;;;;;;;3.30;3.00;;;;;;;9.82;71.37;94075.84;5058252;28;20293;-71
2023/12/14 11:14:27;;;;;;;2.80;2.60;;;;;;;9.71;70.97;94078.44;5057375;28;20319;-71
2023/12/14 11:16:57;;;;;;;3.13;2.53;;;;;;;9.62;70.77;94073.22;5075037;28;20185;-71
2023/12/14 11:19:30;;;;;;;2.60;2.40;;;;;;;9.55;71.09;94072.28;5074255;28;20502;-71
2023/12/14 11:22:24;;;;;;;2.92;2.47;;;;;;;9.49;71.71;94088.34;5057541;28;20292;-72
2023/12/14 11:24:55;;;;;;;3.30;2.50;;;;;;;9.45;71.77;94089.44;5017436;28;20297;-72
2023/12/14 11:27:28;;;;;;;2.38;2.20;;;;;;;9.40;71.28;94088.59;5078652;28;20189;-72
2023/12/14 11:29:55;;;;;;;2.45;2.20;;;;;;;9.36;70.84;94107.00;5078665;28;20193;-72
2023/12/14 11:32:26;;;;;;;2.85;2.55;;;;;;;9.30;69.98;94113.19;5077742;28;20190;-71
2023/12/14 11:34:54;;;;;;;3.03;2.05;;;;;;;9.32;70.35;94111.66;5078612;28;20209;-71